createdAt,value
2024-03-08T00:00:14.542Z,54.97
2024-03-08T00:02:45.016Z,55.03
2024-03-08T00:05:13.393Z,55.89
2024-03-08T00:07:42.416Z,54.77
2024-03-08T00:10:13.053Z,55.45
2024-03-08T00:12:42.872Z,54.92
2024-03-08T00:15:11.799Z,55.21
2024-03-08T00:17:39.848Z,55.32
2024-03-08T00:20:10.667Z,55.15
2024-03-08T00:22:38.542Z,55.79
2024-03-08T00:25:09.726Z,54.92
2024-03-08T00:27:37.533Z,55.40
2024-03-08T00:30:05.956Z,55.79
2024-03-08T00:32:33.828Z,55.81
2024-03-08T00:35:01.587Z,55.60
2024-03-08T00:37:30.567Z,56.17
2024-03-08T00:39:58.176Z,55.38
2024-03-08T00:42:26.059Z,55.40
2024-03-08T00:44:53.876Z,55.04
2024-03-08T00:47:21.553Z,54.68
2024-03-08T00:49:49.157Z,55.83
2024-03-08T00:52:16.969Z,55.67
2024-03-08T00:54:46.140Z,55.71
2024-03-08T00:57:13.790Z,55.24
2024-03-08T00:59:41.505Z,54.96
2024-03-08T01:02:09.886Z,54.61
2024-03-08T01:04:37.487Z,55.07
2024-03-08T01:07:05.176Z,54.61
2024-03-08T01:09:33.053Z,54.33
2024-03-08T01:12:02.352Z,54.30
2024-03-08T01:14:31.949Z,54.57
2024-03-08T01:16:59.795Z,55.61
2024-03-08T01:19:27.460Z,55.37
2024-03-08T01:21:56.756Z,55.98
2024-03-08T01:24:24.450Z,55.99
2024-03-08T01:26:52.095Z,55.89
2024-03-08T01:29:21.196Z,55.78
2024-03-08T01:31:48.798Z,55.91
2024-03-08T01:34:16.427Z,56.52
2024-03-08T01:36:44.074Z,56.76
2024-03-08T01:39:12.048Z,56.52
2024-03-08T01:41:41.278Z,55.46
2024-03-08T01:44:10.153Z,55.71
2024-03-08T01:46:39.140Z,55.69
2024-03-08T01:49:06.793Z,55.24
2024-03-08T01:51:34.796Z,56.10
2024-03-08T01:54:04.666Z,56.80
2024-03-08T01:56:33.462Z,56.90
2024-03-08T01:59:01.790Z,56.62
2024-03-08T02:01:33.305Z,55.98
2024-03-08T02:04:02.503Z,55.34
2024-03-08T02:06:30.821Z,55.11
2024-03-08T02:08:59.175Z,55.75
2024-03-08T02:11:27.025Z,55.67
2024-03-08T02:13:54.864Z,55.25
2024-03-08T02:16:23.524Z,55.09
2024-03-08T02:18:51.485Z,54.87
2024-03-08T02:21:20.815Z,54.99
2024-03-08T02:23:48.712Z,54.83
2024-03-08T02:26:16.868Z,54.82
2024-03-08T02:28:45.167Z,55.64
2024-03-08T02:31:13.037Z,55.30
2024-03-08T02:33:40.889Z,54.47
2024-03-08T02:36:09.217Z,54.56
2024-03-08T02:38:39.037Z,54.22
2024-03-08T02:41:06.993Z,54.40
2024-03-08T02:43:35.098Z,54.18
2024-03-08T02:46:02.750Z,54.31
2024-03-08T02:48:30.582Z,54.14
2024-03-08T02:50:58.322Z,53.84
2024-03-08T02:53:26.570Z,54.30
2024-03-08T02:55:56.230Z,54.06
2024-03-08T02:58:24.232Z,53.66
2024-03-08T03:00:52.104Z,53.59
2024-03-08T03:03:19.822Z,54.04
2024-03-08T03:05:49.437Z,53.95
2024-03-08T03:08:17.705Z,54.03
2024-03-08T03:10:45.380Z,54.27
2024-03-08T03:13:15.110Z,54.46
2024-03-08T03:15:42.921Z,54.09
2024-03-08T03:18:10.827Z,53.55
2024-03-08T03:20:41.670Z,54.17
2024-03-08T03:23:10.264Z,53.95
2024-03-08T03:25:39.732Z,54.37
2024-03-08T03:28:09.259Z,54.18
2024-03-08T03:30:38.377Z,53.64
2024-03-08T03:33:07.840Z,53.86
2024-03-08T03:35:37.186Z,53.72
2024-03-08T03:38:09.708Z,53.72
2024-03-08T03:40:39.492Z,53.88
2024-03-08T03:43:07.418Z,54.00
2024-03-08T03:45:35.781Z,53.61
2024-03-08T03:48:07.629Z,53.70
2024-03-08T03:50:36.877Z,53.88
2024-03-08T03:53:08.731Z,53.38
2024-03-08T03:55:37.859Z,53.56
2024-03-08T03:58:05.844Z,53.38
2024-03-08T04:00:33.996Z,53.43
2024-03-08T04:03:02.334Z,53.15
2024-03-08T04:05:31.885Z,53.41
2024-03-08T04:07:59.584Z,53.04
2024-03-08T04:10:27.403Z,53.38
2024-03-08T04:12:55.032Z,53.46
2024-03-08T04:15:22.770Z,53.04
2024-03-08T04:17:50.559Z,53.31
2024-03-08T04:20:18.652Z,53.59
2024-03-08T04:22:49.344Z,53.49
2024-03-08T04:25:17.231Z,53.37
2024-03-08T04:27:45.489Z,53.36
2024-03-08T04:30:14.233Z,53.11
2024-03-08T04:32:42.583Z,53.51
2024-03-08T04:35:10.670Z,53.37
2024-03-08T04:37:38.435Z,53.46
2024-03-08T04:40:09.132Z,53.79
2024-03-08T04:42:39.075Z,53.83
2024-03-08T04:45:09.119Z,53.89
2024-03-08T04:47:38.108Z,53.62
2024-03-08T04:50:06.800Z,54.18
2024-03-08T04:52:34.414Z,54.40
2024-03-08T04:55:03.001Z,54.57
2024-03-08T04:57:31.978Z,54.41
2024-03-08T05:00:00.186Z,54.55
2024-03-08T05:02:27.962Z,54.41
2024-03-08T05:04:56.257Z,54.67
2024-03-08T05:07:23.858Z,54.80
2024-03-08T05:09:52.848Z,54.98
2024-03-08T05:12:20.953Z,55.38
2024-03-08T05:14:51.007Z,55.11
2024-03-08T05:17:19.023Z,55.15
2024-03-08T05:19:47.014Z,55.37
2024-03-08T05:22:14.893Z,54.99
2024-03-08T05:24:43.573Z,55.16
2024-03-08T05:27:11.284Z,55.22
2024-03-08T05:29:39.349Z,56.00
2024-03-08T05:32:09.084Z,55.42
2024-03-08T05:34:36.798Z,55.72
2024-03-08T05:37:04.472Z,55.67
2024-03-08T05:39:32.281Z,55.86
2024-03-08T05:42:00.022Z,56.40
2024-03-08T05:44:29.691Z,56.00
2024-03-08T05:46:57.459Z,56.17
2024-03-08T05:49:27.012Z,56.11
2024-03-08T05:51:55.488Z,56.73
2024-03-08T05:54:25.679Z,56.42
2024-03-08T05:56:56.658Z,56.34
2024-03-08T05:59:24.914Z,56.20
2024-03-08T06:01:52.715Z,55.79
2024-03-08T06:04:20.366Z,56.86
2024-03-08T06:06:52.456Z,55.65
2024-03-08T06:09:24.772Z,56.10
2024-03-08T06:11:53.105Z,55.92
2024-03-08T06:14:20.807Z,55.77
2024-03-08T06:16:51.278Z,55.96
2024-03-08T06:19:19.482Z,56.47
2024-03-08T06:21:47.609Z,57.24
2024-03-08T06:24:17.167Z,55.69
2024-03-08T06:26:44.924Z,56.31
2024-03-08T06:29:13.892Z,55.36
2024-03-08T06:31:41.603Z,55.21
2024-03-08T06:34:10.232Z,55.33
2024-03-08T06:36:38.885Z,55.29
2024-03-08T06:39:10.157Z,55.28
2024-03-08T06:41:39.681Z,54.46
2024-03-08T06:44:09.024Z,54.18
2024-03-08T06:46:37.010Z,55.77
2024-03-08T06:49:04.797Z,52.97
2024-03-08T06:51:33.335Z,52.58
2024-03-08T06:54:01.090Z,52.30
2024-03-08T06:56:28.737Z,51.20
2024-03-08T06:58:57.775Z,50.76
2024-03-08T07:01:25.563Z,50.82
2024-03-08T07:03:53.525Z,50.37
2024-03-08T07:06:21.774Z,49.59
2024-03-08T07:08:49.856Z,49.20
2024-03-08T07:11:19.507Z,48.60
2024-03-08T07:13:47.463Z,48.18
2024-03-08T07:16:16.951Z,47.96
2024-03-08T07:18:45.416Z,47.99
2024-03-08T07:21:13.369Z,47.58
2024-03-08T07:24:04.433Z,47.58
2024-03-08T07:26:32.586Z,46.64
2024-03-08T07:29:01.478Z,46.75
2024-03-08T07:31:45.556Z,47.24
2024-03-08T07:34:13.531Z,46.31
2024-03-08T07:36:41.200Z,46.38
2024-03-08T07:39:12.475Z,45.48
2024-03-08T07:41:41.047Z,45.40
2024-03-08T07:44:08.799Z,45.87
2024-03-08T07:46:38.147Z,45.28
2024-03-08T07:49:05.807Z,44.81
2024-03-08T07:51:35.716Z,44.54
2024-03-08T07:54:05.366Z,45.10
2024-03-08T07:56:33.251Z,44.39
2024-03-08T07:59:00.927Z,44.31
2024-03-08T08:01:28.762Z,45.40
2024-03-08T08:03:58.060Z,45.17
2024-03-08T08:06:26.454Z,44.39
2024-03-08T08:08:54.392Z,43.30
2024-03-08T08:11:22.894Z,42.44
2024-03-08T08:13:50.543Z,41.79
2024-03-08T08:16:18.423Z,41.54
2024-03-08T08:18:47.266Z,41.31
2024-03-08T08:21:16.276Z,41.16
2024-03-08T08:23:43.922Z,40.60
2024-03-08T08:26:12.494Z,41.52
2024-03-08T08:28:41.939Z,40.77
2024-03-08T08:31:09.808Z,40.21
2024-03-08T08:33:37.681Z,40.93
2024-03-08T08:36:06.224Z,40.62
2024-03-08T08:38:35.215Z,39.96
2024-03-08T08:41:03.498Z,39.70
2024-03-08T08:43:31.295Z,40.04
2024-03-08T08:45:58.909Z,39.92
2024-03-08T08:48:26.654Z,40.34
2024-03-08T08:50:54.415Z,40.73
2024-03-08T08:53:22.917Z,40.15
2024-03-08T08:55:52.047Z,40.14
2024-03-08T08:58:20.644Z,40.17
2024-03-08T09:00:48.277Z,40.03
2024-03-08T09:03:18.143Z,39.61
2024-03-08T09:05:46.382Z,39.09
2024-03-08T09:08:14.756Z,39.19
2024-03-08T09:10:42.540Z,39.29
2024-03-08T09:13:18.298Z,39.27
2024-03-08T09:15:53.751Z,39.59
2024-03-08T09:18:21.472Z,38.75
2024-03-08T09:20:49.236Z,39.08
2024-03-08T09:23:18.002Z,39.15
2024-03-08T09:25:47.682Z,39.93
2024-03-08T09:28:17.540Z,39.98
2024-03-08T09:30:53.825Z,39.36
2024-03-08T09:33:24.957Z,39.87
2024-03-08T09:35:54.228Z,39.46
2024-03-08T09:38:22.643Z,38.96
2024-03-08T09:40:50.333Z,40.16
2024-03-08T09:43:22.577Z,39.28
2024-03-08T09:45:52.126Z,38.83
2024-03-08T09:48:21.070Z,38.57
2024-03-08T09:50:49.303Z,38.75
2024-03-08T09:53:17.769Z,39.30
2024-03-08T09:55:46.404Z,38.75
2024-03-08T09:58:37.285Z,39.11
2024-03-08T10:01:07.299Z,38.73
2024-03-08T10:03:35.707Z,38.89
2024-03-08T10:06:04.480Z,39.30
2024-03-08T10:08:32.225Z,39.13
2024-03-08T10:11:00.330Z,38.99
2024-03-08T10:13:29.261Z,39.40
2024-03-08T10:15:57.039Z,39.62
2024-03-08T10:18:26.076Z,38.81
2024-03-08T10:21:08.433Z,38.89
2024-03-08T10:23:36.532Z,38.43
2024-03-08T10:26:15.777Z,37.88
2024-03-08T10:28:45.413Z,38.54
2024-03-08T10:31:15.478Z,38.19
2024-03-08T10:33:46.259Z,38.31
2024-03-08T10:36:15.321Z,37.65
2024-03-08T10:38:47.903Z,37.60
2024-03-08T10:41:17.275Z,37.74
2024-03-08T10:44:02.348Z,37.17
2024-03-08T10:46:38.566Z,37.56
2024-03-08T10:49:14.598Z,37.18
2024-03-08T10:51:43.491Z,37.02
2024-03-08T10:54:12.674Z,37.56
2024-03-08T10:56:42.084Z,37.10
2024-03-08T10:59:10.897Z,37.59
2024-03-08T11:01:39.299Z,37.21
2024-03-08T11:04:08.401Z,37.31
2024-03-08T11:06:46.372Z,36.97
2024-03-08T11:09:31.837Z,36.71
2024-03-08T11:12:22.197Z,37.04
2024-03-08T11:14:51.590Z,36.73
2024-03-08T11:17:23.614Z,36.56
2024-03-08T11:19:57.566Z,36.66
2024-03-08T11:22:32.422Z,36.82
2024-03-08T11:25:01.962Z,37.03
2024-03-08T11:27:32.136Z,36.89
2024-03-08T11:30:21.395Z,37.31
2024-03-08T11:32:49.535Z,36.76
2024-03-08T11:35:23.945Z,36.61
2024-03-08T11:37:52.046Z,36.89
2024-03-08T11:40:21.030Z,37.13
2024-03-08T11:42:50.723Z,36.81
2024-03-08T11:45:19.069Z,36.31
2024-03-08T11:47:47.949Z,35.63
2024-03-08T11:50:16.276Z,35.99
2024-03-08T11:52:45.861Z,35.67
2024-03-08T11:55:14.212Z,35.71
2024-03-08T11:57:43.321Z,35.15
2024-03-08T12:00:24.004Z,35.80
2024-03-08T12:03:03.808Z,35.99
2024-03-08T12:05:32.400Z,35.95
2024-03-08T12:08:01.945Z,35.01
2024-03-08T12:10:30.789Z,35.22
2024-03-08T12:13:01.296Z,35.09
2024-03-08T12:15:33.929Z,34.52
2024-03-08T12:18:02.587Z,35.29
2024-03-08T12:20:31.990Z,35.32
2024-03-08T12:23:01.893Z,35.35
2024-03-08T12:25:32.466Z,35.96
2024-03-08T12:28:11.589Z,35.84
2024-03-08T12:30:48.824Z,36.02
2024-03-08T12:33:16.562Z,35.29
2024-03-08T12:35:54.518Z,35.50
2024-03-08T12:38:26.752Z,35.42
2024-03-08T12:40:58.170Z,34.82
2024-03-08T12:43:26.128Z,35.19
2024-03-08T12:45:56.089Z,35.99
2024-03-08T12:48:23.791Z,35.58
2024-03-08T12:50:53.050Z,35.38
2024-03-08T12:53:20.961Z,35.21
2024-03-08T12:55:49.943Z,35.06
2024-03-08T12:58:18.266Z,34.94
2024-03-08T13:00:46.492Z,34.87
2024-03-08T13:03:14.147Z,34.81
2024-03-08T13:05:43.504Z,34.79
2024-03-08T13:08:13.862Z,34.75
2024-03-08T13:10:44.312Z,33.65
2024-03-08T13:13:19.467Z,33.77
2024-03-08T13:15:47.365Z,34.21
2024-03-08T13:18:16.934Z,33.77
2024-03-08T13:20:50.188Z,33.26
2024-03-08T13:23:18.584Z,33.56
2024-03-08T13:25:48.617Z,33.94
2024-03-08T13:28:18.398Z,34.00
2024-03-08T13:30:46.682Z,34.36
2024-03-08T13:33:15.763Z,33.76
2024-03-08T13:35:43.433Z,33.93
2024-03-08T13:38:14.226Z,33.85
2024-03-08T13:40:42.197Z,33.80
2024-03-08T13:43:09.961Z,34.33
2024-03-08T13:45:39.794Z,33.68
2024-03-08T13:48:08.146Z,33.60
2024-03-08T13:50:36.069Z,33.56
2024-03-08T13:53:04.753Z,34.00
2024-03-08T13:55:32.542Z,32.92
2024-03-08T13:58:01.314Z,34.25
2024-03-08T14:00:34.141Z,34.29
2024-03-08T14:03:06.591Z,33.29
2024-03-08T14:05:35.806Z,33.46
2024-03-08T14:08:04.605Z,33.02
2024-03-08T14:10:32.897Z,33.10
2024-03-08T14:13:00.963Z,33.21
2024-03-08T14:15:28.710Z,33.20
2024-03-08T14:17:56.973Z,32.50
2024-03-08T14:20:27.167Z,32.63
2024-03-08T14:22:55.977Z,32.33
2024-03-08T14:25:24.780Z,32.93
2024-03-08T14:27:54.659Z,33.89
2024-03-08T14:30:35.704Z,33.14
2024-03-08T14:33:04.238Z,33.44
2024-03-08T14:35:35.429Z,33.21
2024-03-08T14:38:03.243Z,33.39
2024-03-08T14:40:31.521Z,33.48
2024-03-08T14:42:59.274Z,33.72
2024-03-08T14:45:27.632Z,33.73
2024-03-08T14:47:56.026Z,33.27
2024-03-08T14:50:25.069Z,33.63
2024-03-08T14:52:54.582Z,34.91
2024-03-08T14:55:23.639Z,34.89
2024-03-08T14:57:52.427Z,35.53
2024-03-08T15:00:27.864Z,35.66
2024-03-08T15:02:56.161Z,34.85
2024-03-08T15:05:28.105Z,35.27
2024-03-08T15:07:57.390Z,35.09
2024-03-08T15:10:26.928Z,34.93
2024-03-08T15:12:56.854Z,34.60
2024-03-08T15:15:27.130Z,34.60
2024-03-08T15:17:58.459Z,34.97
2024-03-08T15:20:30.976Z,34.72
2024-03-08T15:23:00.703Z,34.74
2024-03-08T15:25:28.821Z,34.69
2024-03-08T15:27:58.767Z,35.91
2024-03-08T15:30:27.577Z,34.91
2024-03-08T15:32:58.213Z,35.17
2024-03-08T15:35:26.843Z,34.61
2024-03-08T15:37:57.262Z,35.03
2024-03-08T15:40:26.668Z,34.87
2024-03-08T15:42:57.599Z,35.03
2024-03-08T15:45:26.884Z,35.13
2024-03-08T15:47:54.545Z,35.67
2024-03-08T15:50:24.166Z,35.25
2024-03-08T15:52:53.850Z,35.63
2024-03-08T15:55:24.123Z,35.25
2024-03-08T15:57:54.905Z,35.58
2024-03-08T16:00:34.422Z,35.25
2024-03-08T16:03:07.341Z,35.59
2024-03-08T16:05:35.532Z,35.76
2024-03-08T16:08:03.479Z,36.05
2024-03-08T16:10:31.400Z,36.45
2024-03-08T16:13:01.648Z,36.17
2024-03-08T16:15:29.310Z,36.45
2024-03-08T16:17:57.043Z,36.46
2024-03-08T16:20:24.708Z,36.21
2024-03-08T16:22:53.627Z,36.38
2024-03-08T16:25:21.516Z,36.45
2024-03-08T16:27:49.338Z,36.58
2024-03-08T16:30:18.447Z,37.11
2024-03-08T16:32:51.510Z,37.52
2024-03-08T16:35:20.725Z,37.30
2024-03-08T16:37:49.378Z,37.22
2024-03-08T16:40:18.378Z,37.47
2024-03-08T16:42:46.693Z,37.82
2024-03-08T16:45:15.374Z,37.80
2024-03-08T16:47:54.934Z,37.93
2024-03-08T16:50:51.010Z,38.22
2024-03-08T16:53:35.781Z,38.46
2024-03-08T16:56:07.269Z,38.86
2024-03-08T16:58:39.313Z,38.88
2024-03-08T17:01:07.156Z,38.98
2024-03-08T17:03:44.936Z,39.09
2024-03-08T17:06:23.929Z,38.92
2024-03-08T17:08:53.001Z,39.49
2024-03-08T17:11:22.235Z,39.29
2024-03-08T17:13:50.324Z,39.65
2024-03-08T17:16:18.149Z,39.48
2024-03-08T17:18:47.115Z,39.91
2024-03-08T17:21:15.299Z,39.80
2024-03-08T17:23:42.905Z,39.80
2024-03-08T17:26:10.712Z,40.08
2024-03-08T17:28:42.629Z,40.10
2024-03-08T17:31:12.969Z,40.41
2024-03-08T17:33:42.807Z,40.36
2024-03-08T17:36:12.735Z,40.73
2024-03-08T17:38:48.016Z,40.56
2024-03-08T17:41:24.513Z,40.72
2024-03-08T17:43:53.063Z,40.55
2024-03-08T17:46:21.275Z,41.10
2024-03-08T17:48:49.051Z,41.17
2024-03-08T17:51:18.053Z,41.33
2024-03-08T17:53:47.396Z,41.55
2024-03-08T17:56:16.108Z,41.65
2024-03-08T17:58:43.853Z,41.57
2024-03-08T18:01:13.422Z,41.80
2024-03-08T18:03:41.717Z,42.25
2024-03-08T18:06:10.126Z,42.25
2024-03-08T18:08:39.269Z,42.46
2024-03-08T18:11:07.581Z,42.53
2024-03-08T18:13:36.095Z,42.86
2024-03-08T18:16:03.732Z,42.88
2024-03-08T18:18:32.757Z,43.29
2024-03-08T18:21:00.376Z,42.98
2024-03-08T18:23:30.106Z,43.34
2024-03-08T18:25:59.105Z,43.19
2024-03-08T18:28:32.035Z,43.89
2024-03-08T18:31:00.807Z,44.51
2024-03-08T18:33:29.144Z,44.39
2024-03-08T18:35:57.452Z,43.91
2024-03-08T18:38:34.494Z,44.38
2024-03-08T18:41:07.176Z,44.44
2024-03-08T18:43:35.185Z,44.34
2024-03-08T18:46:05.104Z,44.56
2024-03-08T18:48:32.758Z,44.96
2024-03-08T18:51:01.945Z,44.95
2024-03-08T18:53:30.398Z,45.02
2024-03-08T18:55:58.176Z,45.00
2024-03-08T18:58:39.181Z,44.91
2024-03-08T19:01:13.140Z,45.67
2024-03-08T19:03:42.076Z,45.87
2024-03-08T19:06:09.867Z,46.14
2024-03-08T19:08:37.947Z,45.71
2024-03-08T19:11:06.075Z,46.30
2024-03-08T19:13:35.862Z,46.20
2024-03-08T19:16:03.492Z,46.17
2024-03-08T19:18:31.318Z,46.11
2024-03-08T19:20:59.594Z,45.99
2024-03-08T19:23:28.282Z,47.01
2024-03-08T19:25:56.072Z,46.76
2024-03-08T19:28:23.767Z,46.92
2024-03-08T19:30:55.176Z,47.04
2024-03-08T19:33:22.975Z,47.17
2024-03-08T19:35:50.695Z,46.63
2024-03-08T19:38:21.125Z,47.29
2024-03-08T19:40:49.651Z,46.97
2024-03-08T19:43:17.503Z,47.04
2024-03-08T19:45:46.396Z,47.40
2024-03-08T19:48:19.351Z,47.67
2024-03-08T19:50:47.910Z,47.76
2024-03-08T19:53:17.103Z,47.97
2024-03-08T19:55:50.064Z,47.61
2024-03-08T19:58:21.521Z,48.84
2024-03-08T20:00:50.478Z,48.66
2024-03-08T20:03:24.554Z,48.23
2024-03-08T20:05:54.355Z,48.16
2024-03-08T20:08:23.986Z,48.20
2024-03-08T20:10:52.974Z,48.68
2024-03-08T20:13:20.996Z,48.24
2024-03-08T20:15:53.915Z,48.57
2024-03-08T20:18:27.382Z,48.03
2024-03-08T20:20:56.019Z,48.58
2024-03-08T20:23:24.315Z,49.27
2024-03-08T20:25:52.689Z,49.29
2024-03-08T20:28:20.545Z,48.77
2024-03-08T20:30:48.761Z,49.12
2024-03-08T20:33:17.626Z,48.97
2024-03-08T20:35:47.282Z,49.68
2024-03-08T20:38:21.442Z,49.11
2024-03-08T20:40:50.765Z,49.68
2024-03-08T20:43:19.018Z,50.47
2024-03-08T20:45:47.760Z,50.86
2024-03-08T20:48:16.380Z,50.88
2024-03-08T20:50:48.795Z,50.24
2024-03-08T20:53:16.870Z,50.47
2024-03-08T20:55:44.758Z,50.11
2024-03-08T20:58:12.723Z,50.04
2024-03-08T21:00:49.367Z,50.38
2024-03-08T21:03:19.862Z,50.72
2024-03-08T21:05:51.538Z,50.90
2024-03-08T21:08:24.920Z,51.05
2024-03-08T21:10:54.560Z,50.84
2024-03-08T21:13:25.063Z,51.83
2024-03-08T21:15:53.457Z,51.51
2024-03-08T21:18:22.242Z,51.59
2024-03-08T21:20:52.034Z,51.81
2024-03-08T21:23:20.316Z,52.17
2024-03-08T21:25:48.038Z,52.12
2024-03-08T21:28:16.531Z,52.52
2024-03-08T21:30:44.864Z,51.77
2024-03-08T21:33:13.036Z,51.65
2024-03-08T21:35:41.792Z,51.63
2024-03-08T21:38:11.863Z,51.38
2024-03-08T21:43:13.811Z,51.71
2024-03-08T21:45:43.500Z,51.54
2024-03-08T21:48:12.751Z,51.38
2024-03-08T21:50:40.697Z,51.39
2024-03-08T21:53:14.440Z,51.19
2024-03-08T21:55:49.698Z,51.35
2024-03-08T21:58:18.730Z,51.61
2024-03-08T22:00:48.169Z,51.05
2024-03-08T22:03:16.412Z,51.01
2024-03-08T22:05:44.680Z,50.96
2024-03-08T22:08:12.724Z,50.79
2024-03-08T22:10:40.413Z,50.34
2024-03-08T22:13:10.163Z,50.55
2024-03-08T22:15:38.702Z,50.56
2024-03-08T22:18:07.831Z,50.20
2024-03-08T22:20:35.691Z,50.20
2024-03-08T22:23:04.194Z,50.42
2024-03-08T22:25:32.819Z,49.84
2024-03-08T22:28:00.788Z,50.01
2024-03-08T22:30:29.849Z,49.99
2024-03-08T22:32:58.298Z,49.87
2024-03-08T22:35:26.867Z,49.99
2024-03-08T22:37:55.820Z,49.64
2024-03-08T22:40:26.311Z,49.44
2024-03-08T22:42:55.161Z,49.49
2024-03-08T22:45:26.741Z,49.38
2024-03-08T22:47:55.821Z,49.38
2024-03-08T22:50:25.610Z,49.77
2024-03-08T22:52:53.531Z,49.26
2024-03-08T22:55:22.273Z,49.63
2024-03-08T22:57:51.466Z,49.30
2024-03-08T23:00:44.885Z,49.31
2024-03-08T23:03:13.973Z,50.02
2024-03-08T23:05:42.440Z,49.64
2024-03-08T23:08:10.479Z,49.51
2024-03-08T23:10:40.073Z,49.44
2024-03-08T23:13:10.593Z,50.00
2024-03-08T23:15:39.997Z,49.66
2024-03-08T23:18:11.304Z,50.30
2024-03-08T23:20:43.391Z,50.01
2024-03-08T23:23:12.879Z,50.07
2024-03-08T23:25:41.594Z,49.76
2024-03-08T23:28:12.996Z,49.81
2024-03-08T23:30:42.351Z,49.92
2024-03-08T23:33:13.284Z,49.74
2024-03-08T23:35:44.634Z,49.82
2024-03-08T23:38:12.379Z,50.00
2024-03-08T23:40:40.743Z,50.60
2024-03-08T23:43:08.962Z,50.51
2024-03-08T23:45:36.751Z,50.06
2024-03-08T23:48:07.190Z,50.38
2024-03-08T23:50:35.354Z,50.10
2024-03-08T23:53:06.986Z,50.08
2024-03-08T23:55:36.910Z,50.18
2024-03-08T23:58:07.801Z,50.08
